createdAt,value
2023-04-25T00:01:57.800Z,16.90
2023-04-25T00:04:24.985Z,11.30
2023-04-25T00:06:53.419Z,13.80
2023-04-25T00:09:20.312Z,9.00
2023-04-25T00:11:47.157Z,10.30
2023-04-25T00:15:27.959Z,9.10
2023-04-25T00:17:54.796Z,17.30
2023-04-25T00:20:23.034Z,10.00
2023-04-25T00:22:50.564Z,12.90
2023-04-25T00:25:17.642Z,12.00
2023-04-25T00:27:44.437Z,10.70
2023-04-25T00:30:12.368Z,12.20
2023-04-25T00:32:39.202Z,11.40
2023-04-25T00:35:06.977Z,11.10
2023-04-25T00:37:33.835Z,10.90
2023-04-25T00:40:00.699Z,10.50
2023-04-25T00:42:27.505Z,9.30
2023-04-25T00:44:54.414Z,9.90
2023-04-25T00:47:21.256Z,9.10
2023-04-25T00:49:48.321Z,9.60
2023-04-25T00:52:15.583Z,10.40
2023-04-25T00:54:42.432Z,11.20
2023-04-25T00:57:09.556Z,8.80
2023-04-25T00:59:36.545Z,10.50
2023-04-25T01:02:03.422Z,10.80
2023-04-25T01:04:30.398Z,9.40
2023-04-25T01:06:57.857Z,12.10
2023-04-25T01:09:24.983Z,8.20
2023-04-25T01:11:51.852Z,8.50
2023-04-25T01:14:18.673Z,12.60
2023-04-25T01:16:46.032Z,10.00
2023-04-25T01:19:13.424Z,10.10
2023-04-25T01:21:40.286Z,9.80
2023-04-25T01:24:07.400Z,11.80
2023-04-25T01:26:34.307Z,10.00
2023-04-25T01:29:01.265Z,10.70
2023-04-25T01:31:28.992Z,10.10
2023-04-25T01:33:55.857Z,10.30
2023-04-25T01:36:22.974Z,10.50
2023-04-25T01:38:50.116Z,9.50
2023-04-25T01:41:18.130Z,9.40
2023-04-25T01:43:45.143Z,15.60
2023-04-25T01:46:12.760Z,11.70
2023-04-25T01:48:39.581Z,10.30
2023-04-25T01:51:07.395Z,9.40
2023-04-25T01:53:34.594Z,9.10
2023-04-25T01:56:02.607Z,10.30
2023-04-25T01:58:33.773Z,9.70
2023-04-25T02:01:27.087Z,10.50
2023-04-25T02:04:08.958Z,9.90
2023-04-25T02:06:37.288Z,10.00
2023-04-25T02:09:04.222Z,9.30
2023-04-25T02:11:31.171Z,9.00
2023-04-25T02:14:16.863Z,11.20
2023-04-25T02:17:06.885Z,9.70
2023-04-25T02:19:33.865Z,14.40
2023-04-25T02:22:01.116Z,11.50
2023-04-25T02:24:29.049Z,10.20
2023-04-25T02:26:57.170Z,13.90
2023-04-25T02:29:24.106Z,11.60
2023-04-25T02:31:51.350Z,10.90
2023-04-25T02:34:18.287Z,8.90
2023-04-25T02:36:45.115Z,12.60
2023-04-25T02:39:12.012Z,8.90
2023-04-25T02:41:39.296Z,12.30
2023-04-25T02:44:06.332Z,10.00
2023-04-25T02:49:05.029Z,10.90
2023-04-25T02:51:32.202Z,10.90
2023-04-25T02:53:59.735Z,11.10
2023-04-25T02:56:27.379Z,8.90
2023-04-25T02:58:54.804Z,8.80
2023-04-25T03:01:22.261Z,12.00
2023-04-25T03:03:49.789Z,9.70
2023-04-25T03:06:17.037Z,10.70
2023-04-25T03:08:44.521Z,11.70
2023-04-25T03:11:11.738Z,9.90
2023-04-25T03:13:38.701Z,9.70
2023-04-25T03:16:06.554Z,9.70
2023-04-25T03:18:33.476Z,11.00
2023-04-25T03:21:00.616Z,9.80
2023-04-25T03:23:27.525Z,8.70
2023-04-25T03:25:54.333Z,9.70
2023-04-25T03:28:21.595Z,10.00
2023-04-25T03:30:48.554Z,11.00
2023-04-25T03:33:15.674Z,8.60
2023-04-25T03:35:43.675Z,11.40
2023-04-25T03:38:10.953Z,11.50
2023-04-25T03:40:39.645Z,11.00
2023-04-25T03:43:16.347Z,11.90
2023-04-25T03:45:48.236Z,9.60
2023-04-25T03:48:15.791Z,10.80
2023-04-25T03:50:43.547Z,12.70
2023-04-25T03:53:10.352Z,10.60
2023-04-25T03:55:57.169Z,10.90
2023-04-25T03:58:25.435Z,10.60
2023-04-25T04:00:52.305Z,11.70
2023-04-25T04:03:19.760Z,11.30
2023-04-25T04:05:47.695Z,11.00
2023-04-25T04:08:14.656Z,11.50
2023-04-25T04:10:42.469Z,13.30
2023-04-25T04:13:09.622Z,12.50
2023-04-25T04:15:36.845Z,11.80
2023-04-25T04:18:04.054Z,12.10
2023-04-25T04:20:31.614Z,11.30
2023-04-25T04:22:58.483Z,11.80
2023-04-25T04:25:25.692Z,13.20
2023-04-25T04:28:22.883Z,11.30
2023-04-25T04:31:02.146Z,10.70
2023-04-25T04:33:29.319Z,9.70
2023-04-25T04:36:00.124Z,11.40
2023-04-25T04:38:27.842Z,11.00
2023-04-25T04:40:57.329Z,10.20
2023-04-25T04:43:44.491Z,11.90
2023-04-25T04:46:43.209Z,12.90
2023-04-25T04:49:33.644Z,10.00
2023-04-25T04:52:21.117Z,10.10
2023-04-25T04:54:53.723Z,8.80
2023-04-25T04:57:43.680Z,9.60
2023-04-25T05:00:34.385Z,8.70
2023-04-25T05:03:17.567Z,7.80
2023-04-25T05:06:06.534Z,9.30
2023-04-25T05:08:53.950Z,8.80
2023-04-25T05:11:38.103Z,11.40
2023-04-25T05:14:25.017Z,16.80
2023-04-25T05:17:09.472Z,7.90
2023-04-25T05:22:27.899Z,9.10
2023-04-25T05:25:17.856Z,8.50
2023-04-25T05:27:58.233Z,9.20
2023-04-25T05:30:45.435Z,9.20
2023-04-25T05:33:18.555Z,8.00
2023-04-25T05:35:45.975Z,10.10
2023-04-25T05:38:12.794Z,11.80
2023-04-25T05:40:58.510Z,9.40
2023-04-25T05:43:52.072Z,9.30
2023-04-25T05:46:24.434Z,9.80
2023-04-25T05:49:26.629Z,11.60
2023-04-25T05:51:53.601Z,10.70
2023-04-25T05:54:38.983Z,9.30
2023-04-25T05:57:05.879Z,10.40
2023-04-25T05:59:32.924Z,9.00
2023-04-25T06:02:00.011Z,10.40
2023-04-25T06:04:27.700Z,8.20
2023-04-25T06:06:54.774Z,9.70
2023-04-25T06:09:22.784Z,8.10
2023-04-25T06:11:49.824Z,14.00
2023-04-25T06:14:17.468Z,8.20
2023-04-25T06:16:47.731Z,12.00
2023-04-25T06:19:14.626Z,9.30
2023-04-25T06:21:44.226Z,8.90
2023-04-25T06:24:11.305Z,7.90
2023-04-25T06:26:38.222Z,9.00
2023-04-25T06:29:05.386Z,8.70
2023-04-25T06:31:34.093Z,8.50
2023-04-25T06:34:01.351Z,8.40
2023-04-25T06:36:28.830Z,8.90
2023-04-25T06:39:00.298Z,8.60
2023-04-25T06:41:27.143Z,9.80
2023-04-25T06:43:58.027Z,10.30
2023-04-25T06:46:39.305Z,7.90
2023-04-25T06:49:06.426Z,7.00
2023-04-25T06:51:33.790Z,8.10
2023-04-25T06:54:01.110Z,9.00
2023-04-25T06:56:32.094Z,7.20
2023-04-25T06:59:06.001Z,10.10
2023-04-25T07:01:37.999Z,9.70
2023-04-25T07:04:08.819Z,8.60
2023-04-25T07:06:43.486Z,11.60
2023-04-25T07:09:13.951Z,10.90
2023-04-25T07:11:42.153Z,9.70
2023-04-25T07:14:09.187Z,8.80
2023-04-25T07:16:36.128Z,8.90
2023-04-25T07:19:03.330Z,20.10
2023-04-25T07:21:32.045Z,9.70
2023-04-25T07:24:01.056Z,7.50
2023-04-25T07:26:31.782Z,7.80
2023-04-25T07:29:17.433Z,9.90
2023-04-25T07:31:44.344Z,8.30
2023-04-25T07:34:11.303Z,8.40
2023-04-25T07:36:38.847Z,7.00
2023-04-25T07:39:05.986Z,8.00
2023-04-25T07:41:33.057Z,11.40
2023-04-25T07:44:00.031Z,8.80
2023-04-25T07:46:27.212Z,8.70
2023-04-25T07:48:54.381Z,7.80
2023-04-25T07:51:23.272Z,12.60
2023-04-25T07:53:52.434Z,9.30
2023-04-25T07:56:20.903Z,12.40
2023-04-25T07:58:48.273Z,13.20
2023-04-25T08:01:15.491Z,8.70
2023-04-25T08:03:55.173Z,7.60
2023-04-25T08:06:54.930Z,9.30
2023-04-25T08:09:28.210Z,7.10
2023-04-25T08:11:56.031Z,8.20
2023-04-25T08:14:26.758Z,9.20
2023-04-25T08:16:53.997Z,6.80
2023-04-25T08:19:21.106Z,7.10
2023-04-25T08:21:48.071Z,8.80
2023-04-25T08:24:17.929Z,7.90
2023-04-25T08:26:44.925Z,8.50
2023-04-25T08:29:15.859Z,8.10
2023-04-25T08:31:43.596Z,8.30
2023-04-25T08:34:10.859Z,6.60
2023-04-25T08:36:45.944Z,6.00
2023-04-25T08:39:31.275Z,9.50
2023-04-25T08:42:16.952Z,9.30
2023-04-25T08:44:44.209Z,7.40
2023-04-25T08:47:11.482Z,8.60
2023-04-25T08:49:51.404Z,9.70
2023-04-25T08:52:18.602Z,8.20
2023-04-25T08:54:45.891Z,8.40
2023-04-25T08:57:13.035Z,7.50
2023-04-25T08:59:40.745Z,7.30
2023-04-25T09:02:09.443Z,7.40
2023-04-25T09:04:36.512Z,7.80
2023-04-25T09:07:03.558Z,7.80
2023-04-25T09:09:30.568Z,7.40
2023-04-25T09:11:58.167Z,9.40
2023-04-25T09:14:27.062Z,7.70
2023-04-25T09:17:06.347Z,10.50
2023-04-25T09:19:41.996Z,7.20
2023-04-25T09:22:16.994Z,9.00
2023-04-25T09:24:45.251Z,8.10
2023-04-25T09:27:13.650Z,6.30
2023-04-25T09:29:42.003Z,9.60
2023-04-25T09:32:22.506Z,8.30
2023-04-25T09:34:55.034Z,6.50
2023-04-25T09:37:27.365Z,8.80
2023-04-25T09:40:07.344Z,8.40
2023-04-25T09:42:36.565Z,7.00
2023-04-25T09:45:03.867Z,7.00
2023-04-25T09:47:33.968Z,6.00
2023-04-25T09:50:01.281Z,6.00
2023-04-25T09:52:28.132Z,6.20
2023-04-25T09:55:13.115Z,5.60
2023-04-25T09:57:40.978Z,5.40
2023-04-25T10:00:12.034Z,6.60
2023-04-25T10:02:42.465Z,7.30
2023-04-25T10:05:10.580Z,6.40
2023-04-25T10:07:41.507Z,8.70
2023-04-25T10:10:16.651Z,6.70
2023-04-25T10:12:45.321Z,9.00
2023-04-25T10:15:12.227Z,9.10
2023-04-25T10:17:39.237Z,6.90
2023-04-25T10:20:13.663Z,6.40
2023-04-25T10:22:45.202Z,8.40
2023-04-25T10:25:12.301Z,7.90
2023-04-25T10:27:39.994Z,5.30
2023-04-25T10:30:13.814Z,8.20
2023-04-25T10:32:40.786Z,7.40
2023-04-25T10:35:17.456Z,5.50
2023-04-25T10:38:06.870Z,5.60
2023-04-25T10:40:34.260Z,6.20
2023-04-25T10:43:29.213Z,6.00
2023-04-25T10:45:56.077Z,8.10
2023-04-25T10:48:49.144Z,6.70
2023-04-25T10:51:37.148Z,4.90
2023-04-25T10:54:10.699Z,8.90
2023-04-25T10:56:38.998Z,10.30
2023-04-25T10:59:10.993Z,5.80
2023-04-25T11:01:42.551Z,6.30
2023-04-25T11:04:23.006Z,5.00
2023-04-25T11:07:06.360Z,5.50
2023-04-25T11:09:35.259Z,6.30
2023-04-25T11:12:02.114Z,5.70
2023-04-25T11:14:29.159Z,7.50
2023-04-25T11:17:00.371Z,8.20
2023-04-25T11:19:28.287Z,6.30
2023-04-25T11:21:59.154Z,7.20
2023-04-25T11:24:33.434Z,6.20
2023-04-25T11:27:00.273Z,6.60
2023-04-25T11:29:34.831Z,5.80
2023-04-25T11:32:02.365Z,5.60
2023-04-25T11:34:31.927Z,7.70
2023-04-25T11:36:59.126Z,6.40
2023-04-25T11:39:26.256Z,7.90
2023-04-25T11:41:53.880Z,6.00
2023-04-25T11:44:21.011Z,5.90
2023-04-25T11:46:48.343Z,5.70
2023-04-25T11:49:15.992Z,5.70
2023-04-25T11:51:44.343Z,7.20
2023-04-25T11:54:13.148Z,6.10
2023-04-25T11:56:43.775Z,7.90
2023-04-25T11:59:11.608Z,6.40
2023-04-25T12:01:41.959Z,5.50
2023-04-25T12:04:19.007Z,5.70
2023-04-25T12:06:49.694Z,5.70
2023-04-25T12:09:19.574Z,6.70
2023-04-25T12:11:48.183Z,6.20
2023-04-25T12:14:31.044Z,6.30
2023-04-25T12:17:00.700Z,13.30
2023-04-25T12:19:29.281Z,8.60
2023-04-25T12:21:58.825Z,5.30
2023-04-25T12:24:28.435Z,5.30
2023-04-25T12:27:06.306Z,6.00
2023-04-25T12:29:38.548Z,6.10
2023-04-25T12:33:03.873Z,5.70
2023-04-25T12:35:31.849Z,5.70
2023-04-25T12:37:58.725Z,6.00
2023-04-25T12:40:25.842Z,6.70
2023-04-25T12:42:52.720Z,10.20
2023-04-25T12:45:19.559Z,7.40
2023-04-25T12:47:46.878Z,8.70
2023-04-25T12:50:14.036Z,9.80
2023-04-25T12:52:40.834Z,13.80
2023-04-25T12:55:07.823Z,7.60
2023-04-25T12:57:34.692Z,7.90
2023-04-25T13:00:01.578Z,6.20
2023-04-25T13:02:28.558Z,4.80
2023-04-25T13:04:55.503Z,5.50
2023-04-25T13:07:22.263Z,5.90
2023-04-25T13:09:49.177Z,5.60
2023-04-25T13:12:16.646Z,7.00
2023-04-25T13:14:43.458Z,5.60
2023-04-25T13:17:10.383Z,5.10
2023-04-25T13:19:37.158Z,6.40
2023-04-25T13:22:05.374Z,5.80
2023-04-25T13:24:32.304Z,5.30
2023-04-25T13:26:59.250Z,5.30
2023-04-25T13:29:26.086Z,4.60
2023-04-25T13:31:53.037Z,6.80
2023-04-25T13:34:19.879Z,5.10
2023-04-25T13:36:47.103Z,6.80
2023-04-25T13:39:14.585Z,6.60
2023-04-25T13:41:41.620Z,4.60
2023-04-25T13:44:08.529Z,8.70
2023-04-25T13:46:46.232Z,5.20
2023-04-25T13:49:14.284Z,4.40
2023-04-25T13:51:41.645Z,5.30
2023-04-25T13:54:08.753Z,6.70
2023-04-25T13:56:35.749Z,7.90
2023-04-25T13:59:02.692Z,7.00
2023-04-25T14:01:31.627Z,4.90
2023-04-25T14:03:58.706Z,4.30
2023-04-25T14:06:26.395Z,5.10
2023-04-25T14:08:53.200Z,5.00
2023-04-25T14:11:20.214Z,6.10
2023-04-25T14:13:47.333Z,5.20
2023-04-25T14:16:14.214Z,4.20
2023-04-25T14:18:41.119Z,4.80
2023-04-25T14:21:08.008Z,5.60
2023-04-25T14:23:34.908Z,5.80
2023-04-25T14:26:01.861Z,5.90
2023-04-25T14:28:28.715Z,7.10
2023-04-25T14:30:55.736Z,4.20
2023-04-25T14:33:22.908Z,8.40
2023-04-25T14:35:49.809Z,6.20
2023-04-25T14:38:16.654Z,7.00
2023-04-25T14:40:43.600Z,5.80
2023-04-25T14:43:10.607Z,4.60
2023-04-25T14:45:37.437Z,9.00
2023-04-25T14:48:04.610Z,6.00
2023-04-25T14:50:31.767Z,5.10
2023-04-25T14:53:00.198Z,7.00
2023-04-25T14:55:30.076Z,4.90
2023-04-25T14:57:57.649Z,6.40
2023-04-25T15:00:26.220Z,7.60
2023-04-25T15:02:53.373Z,4.40
2023-04-25T15:05:21.142Z,4.20
2023-04-25T15:07:49.010Z,4.70
2023-04-25T15:10:17.234Z,4.50
2023-04-25T15:12:45.646Z,4.90
2023-04-25T15:15:22.506Z,4.40
2023-04-25T15:17:52.680Z,3.60
2023-04-25T15:20:19.572Z,7.40
2023-04-25T15:22:46.960Z,4.60
2023-04-25T15:25:13.892Z,4.80
2023-04-25T15:27:45.087Z,5.70
2023-04-25T15:30:13.640Z,5.30
2023-04-25T15:32:40.616Z,3.40
2023-04-25T15:35:07.806Z,5.70
2023-04-25T15:37:34.956Z,5.60
2023-04-25T15:40:14.222Z,4.30
2023-04-25T15:42:54.210Z,3.90
2023-04-25T15:45:26.401Z,6.70
2023-04-25T15:47:55.170Z,4.40
2023-04-25T15:50:22.394Z,5.10
2023-04-25T15:52:50.233Z,5.20
2023-04-25T15:55:17.556Z,4.40
2023-04-25T15:57:44.464Z,4.40
2023-04-25T16:00:13.277Z,4.70
2023-04-25T16:02:40.835Z,6.00
2023-04-25T16:05:09.107Z,4.90
2023-04-25T16:07:36.380Z,6.50
2023-04-25T16:10:03.486Z,4.10
2023-04-25T16:12:31.182Z,4.70
2023-04-25T16:14:58.424Z,6.60
2023-04-25T16:17:25.917Z,6.30
2023-04-25T16:19:52.767Z,4.20
2023-04-25T16:22:19.611Z,5.60
2023-04-25T16:24:46.547Z,6.80
2023-04-25T16:27:13.401Z,6.00
2023-04-25T16:29:41.371Z,3.80
2023-04-25T16:32:08.265Z,6.30
2023-04-25T16:34:35.201Z,5.90
2023-04-25T16:37:02.101Z,5.40
2023-04-25T16:39:28.939Z,5.20
2023-04-25T16:41:55.866Z,6.20
2023-04-25T16:44:22.708Z,8.00
2023-04-25T16:46:49.608Z,7.90
2023-04-25T16:49:16.594Z,8.30
2023-04-25T16:51:43.494Z,8.30
2023-04-25T16:54:10.360Z,7.00
2023-04-25T16:56:37.375Z,7.20
2023-04-25T16:59:04.236Z,7.70
2023-04-25T17:01:32.964Z,6.60
2023-04-25T17:04:00.203Z,7.60
2023-04-25T17:06:27.458Z,7.50
2023-04-25T17:08:54.633Z,6.90
2023-04-25T17:11:21.624Z,6.50
2023-04-25T17:13:48.510Z,8.40
2023-04-25T17:16:18.590Z,7.40
2023-04-25T17:18:45.424Z,6.70
2023-04-25T17:21:12.307Z,5.50
2023-04-25T17:23:44.906Z,6.70
2023-04-25T17:26:14.848Z,5.30
2023-04-25T17:28:42.293Z,6.70
2023-04-25T17:31:09.834Z,6.90
2023-04-25T17:33:36.888Z,6.20
2023-04-25T17:36:05.386Z,7.60
2023-04-25T17:38:32.823Z,5.60
2023-04-25T17:40:59.778Z,6.80
2023-04-25T17:43:27.726Z,6.40
2023-04-25T17:45:54.757Z,9.60
2023-04-25T17:48:25.051Z,6.30
2023-04-25T17:50:51.888Z,7.70
2023-04-25T17:53:18.738Z,11.00
2023-04-25T17:55:45.682Z,11.70
2023-04-25T17:58:12.573Z,15.50
2023-04-25T18:00:39.520Z,13.20
2023-04-25T18:03:07.035Z,10.00
2023-04-25T18:05:33.936Z,10.20
2023-04-25T18:08:00.940Z,8.90
2023-04-25T18:10:27.783Z,11.90
2023-04-25T18:12:54.829Z,6.90
2023-04-25T18:15:23.090Z,7.80
2023-04-25T18:17:50.325Z,10.40
2023-04-25T18:20:17.217Z,9.20
2023-04-25T18:22:44.769Z,10.50
2023-04-25T18:25:11.774Z,9.50
2023-04-25T18:27:38.869Z,10.90
2023-04-25T18:30:07.154Z,11.00
2023-04-25T18:32:34.058Z,9.70
2023-04-25T18:35:01.136Z,10.40
2023-04-25T18:37:28.405Z,9.40
2023-04-25T18:39:55.248Z,9.20
2023-04-25T18:42:22.564Z,12.00
2023-04-25T18:44:49.477Z,10.70
2023-04-25T18:47:16.711Z,14.00
2023-04-25T18:49:43.705Z,13.10
2023-04-25T18:52:12.310Z,13.40
2023-04-25T18:54:39.327Z,12.00
2023-04-25T18:57:06.296Z,8.30
2023-04-25T18:59:33.537Z,9.30
2023-04-25T19:02:05.434Z,10.90
2023-04-25T19:04:32.771Z,9.10
2023-04-25T19:06:59.839Z,9.30
2023-04-25T19:09:26.867Z,9.60
2023-04-25T19:11:54.206Z,11.90
2023-04-25T19:14:21.113Z,13.80
2023-04-25T19:16:48.185Z,12.30
2023-04-25T19:19:15.129Z,15.90
2023-04-25T19:21:42.042Z,13.20
2023-04-25T19:24:09.310Z,15.50
2023-04-25T19:26:36.705Z,12.40
2023-04-25T19:29:06.027Z,11.50
2023-04-25T19:31:34.996Z,9.20
2023-04-25T19:34:02.032Z,11.10
2023-04-25T19:36:28.907Z,8.10
2023-04-25T19:39:02.100Z,8.40
2023-04-25T19:41:29.532Z,10.50
2023-04-25T19:43:56.364Z,11.20
2023-04-25T19:46:23.746Z,9.80
2023-04-25T19:48:50.658Z,8.90
2023-04-25T19:51:17.770Z,10.50
2023-04-25T19:53:44.729Z,9.10
2023-04-25T19:56:11.573Z,15.10
2023-04-25T19:58:38.396Z,12.70
2023-04-25T20:01:05.431Z,10.70
2023-04-25T20:03:32.379Z,9.10
2023-04-25T20:05:59.317Z,11.30
2023-04-25T20:08:26.394Z,9.10
2023-04-25T20:10:53.339Z,10.90
2023-04-25T20:13:20.277Z,12.80
2023-04-25T20:15:47.116Z,10.60
2023-04-25T20:18:14.066Z,14.30
2023-04-25T20:20:41.129Z,12.70
2023-04-25T20:23:07.961Z,13.50
2023-04-25T20:25:34.853Z,10.70
2023-04-25T20:28:01.675Z,12.30
2023-04-25T20:30:28.516Z,11.40
2023-04-25T20:32:55.353Z,11.30
2023-04-25T20:35:23.057Z,12.80
2023-04-25T20:37:50.977Z,11.80
2023-04-25T20:40:18.340Z,10.70
2023-04-25T20:42:46.123Z,9.60
2023-04-25T20:45:14.640Z,8.50
2023-04-25T20:47:42.812Z,11.00
2023-04-25T20:50:11.062Z,7.10
2023-04-25T20:52:38.765Z,7.40
2023-04-25T20:55:06.977Z,8.40
2023-04-25T20:57:33.809Z,10.20
2023-04-25T21:00:00.695Z,8.40
2023-04-25T21:02:27.687Z,7.20
2023-04-25T21:04:54.699Z,8.60
2023-04-25T21:07:21.709Z,10.30
2023-04-25T21:09:48.707Z,7.90
2023-04-25T21:12:15.543Z,10.10
2023-04-25T21:14:42.349Z,10.60
2023-04-25T21:17:09.284Z,7.10
2023-04-25T21:19:36.101Z,7.30
2023-04-25T21:22:03.753Z,8.50
2023-04-25T21:24:33.211Z,8.60
2023-04-25T21:27:00.147Z,7.80
2023-04-25T21:29:27.063Z,7.00
2023-04-25T21:31:53.928Z,6.50
2023-04-25T21:34:20.850Z,10.00
2023-04-25T21:36:48.549Z,10.80
2023-04-25T21:39:15.493Z,8.70
2023-04-25T21:41:44.364Z,8.20
2023-04-25T21:44:12.698Z,8.90
2023-04-25T21:46:39.662Z,8.00
2023-04-25T21:49:07.091Z,9.40
2023-04-25T21:51:34.033Z,7.60
2023-04-25T21:54:05.216Z,8.30
2023-04-25T21:56:32.980Z,10.40
2023-04-25T21:58:59.848Z,8.50
2023-04-25T22:01:27.746Z,7.70
2023-04-25T22:03:55.106Z,12.90
2023-04-25T22:06:22.221Z,7.50
2023-04-25T22:08:49.129Z,7.80
2023-04-25T22:11:16.061Z,12.30
2023-04-25T22:13:43.035Z,9.60
2023-04-25T22:16:12.307Z,8.10
2023-04-25T22:18:40.496Z,7.70
2023-04-25T22:21:07.442Z,8.00
2023-04-25T22:23:35.023Z,8.10
2023-04-25T22:26:02.661Z,9.10
2023-04-25T22:28:29.683Z,8.60
2023-04-25T22:30:56.531Z,8.90
2023-04-25T22:33:23.385Z,8.80
2023-04-25T22:35:50.329Z,9.80
2023-04-25T22:38:17.321Z,8.90
2023-04-25T22:40:47.965Z,8.30
2023-04-25T22:43:15.932Z,8.80
2023-04-25T22:45:42.870Z,10.20
2023-04-25T22:48:09.957Z,7.30
2023-04-25T22:50:39.798Z,8.50
2023-04-25T22:53:07.589Z,10.20
2023-04-25T22:55:36.086Z,7.90
2023-04-25T22:58:08.648Z,10.40
2023-04-25T23:00:36.002Z,8.60
2023-04-25T23:03:04.064Z,10.50
2023-04-25T23:05:32.821Z,8.90
2023-04-25T23:07:59.839Z,11.60
2023-04-25T23:10:28.227Z,9.60
2023-04-25T23:12:58.113Z,9.90
2023-04-25T23:15:31.122Z,10.10
2023-04-25T23:17:58.453Z,9.10
2023-04-25T23:20:25.480Z,9.80
2023-04-25T23:22:52.723Z,7.60
2023-04-25T23:25:19.548Z,9.50
2023-04-25T23:27:46.412Z,9.60
2023-04-25T23:30:13.583Z,7.80
2023-04-25T23:32:40.607Z,8.60
2023-04-25T23:35:07.886Z,8.50
2023-04-25T23:37:35.723Z,8.10
2023-04-25T23:40:08.394Z,8.10
2023-04-25T23:42:36.523Z,10.90
2023-04-25T23:45:05.163Z,7.30
2023-04-25T23:47:32.492Z,8.30
2023-04-25T23:49:59.447Z,12.90
2023-04-25T23:52:27.968Z,8.10
2023-04-25T23:54:55.668Z,7.60
2023-04-25T23:57:22.928Z,12.40
2023-04-25T23:59:49.798Z,13.00
